createdAt,value
2019-03-13T10:16:36.962Z,43.27
2019-03-13T10:21:40.176Z,44.07
2019-03-13T10:26:41.476Z,43.32
2019-03-13T11:40:32.103Z,63.54
2019-03-13T11:45:39.347Z,64.04
2019-03-13T11:56:21.164Z,57.41
2019-03-13T13:10:18.610Z,44.89
2019-03-13T13:15:21.899Z,44.70
2019-03-13T13:20:24.258Z,44.33
2019-03-13T13:25:24.641Z,43.14
2019-03-13T14:33:47.465Z,37.49
2019-03-13T14:38:48.764Z,39.17
2019-03-13T14:43:50.037Z,41.41
2019-03-13T14:48:51.341Z,43.64
2019-03-13T14:53:52.637Z,45.76
2019-03-13T14:58:57.618Z,45.69
2019-03-13T16:01:00.710Z,42.18
2019-03-13T16:06:02.043Z,41.77
2019-03-13T16:11:04.538Z,41.00
2019-03-13T16:16:06.645Z,42.67
2019-03-13T16:21:08.005Z,42.98
2019-03-13T16:26:09.296Z,42.97
2019-03-13T16:31:10.589Z,43.06
2019-03-13T16:36:11.868Z,43.94
2019-03-13T16:41:13.906Z,43.73
2019-03-13T16:46:15.185Z,47.82
2019-03-13T16:51:16.467Z,48.58
2019-03-13T16:56:18.496Z,47.94
2019-03-13T17:01:19.834Z,51.00
2019-03-13T17:06:21.885Z,51.29
2019-03-13T17:11:23.937Z,51.29
2019-03-13T17:16:25.237Z,52.77
2019-03-13T17:21:27.286Z,51.53
2019-03-13T17:26:28.576Z,52.06
2019-03-13T17:31:29.888Z,50.72
2019-03-13T17:36:31.247Z,51.11
2019-03-13T17:41:32.553Z,52.21
2019-03-13T17:46:33.851Z,51.54
2019-03-13T17:51:35.145Z,52.89
2019-03-13T17:56:36.572Z,52.69
2019-03-13T18:01:43.625Z,52.41
2019-03-13T18:06:46.298Z,53.46
2019-03-13T18:11:47.638Z,53.21
2019-03-13T18:16:48.970Z,53.21
2019-03-13T18:21:50.291Z,52.97
2019-03-13T18:26:54.781Z,54.16
2019-03-13T18:32:06.496Z,53.18
2019-03-13T18:37:08.830Z,53.91
2019-03-13T18:42:10.124Z,53.22
2019-03-13T18:47:11.952Z,53.79
2019-03-13T18:52:13.879Z,52.73
2019-03-13T18:57:19.401Z,53.15
2019-03-13T19:02:21.616Z,52.82
2019-03-13T19:07:28.453Z,52.56
2019-03-13T19:12:30.653Z,52.73
2019-03-13T19:17:33.750Z,53.17
2019-03-13T19:22:35.946Z,52.99
2019-03-13T19:27:38.155Z,52.71
2019-03-13T19:32:47.448Z,52.90
2019-03-13T19:37:56.931Z,52.62
2019-03-13T19:42:59.688Z,53.07
2019-03-13T19:48:09.400Z,53.29
2019-03-13T19:53:13.648Z,53.44
2019-03-13T19:58:16.371Z,52.75
2019-03-13T20:03:19.707Z,53.17
2019-03-13T20:08:22.227Z,53.30
2019-03-13T20:13:28.372Z,54.06
2019-03-13T20:18:33.032Z,53.25
2019-03-13T20:23:43.557Z,53.29
2019-03-13T20:29:01.745Z,53.21
2019-03-13T20:34:07.301Z,52.95
2019-03-13T20:39:15.223Z,52.40
2019-03-13T20:44:21.494Z,52.69
2019-03-13T20:49:30.129Z,52.84
2019-03-13T20:54:35.093Z,53.06
2019-03-13T20:59:37.215Z,54.56
2019-03-13T21:04:41.478Z,55.82
2019-03-13T21:09:44.388Z,54.67
2019-03-13T21:15:01.586Z,54.86
2019-03-13T21:20:16.811Z,55.44
2019-03-13T21:25:23.509Z,59.23
2019-03-13T21:30:30.371Z,59.77
2019-03-13T21:35:34.642Z,61.39
2019-03-13T21:40:40.809Z,62.03
2019-03-13T21:45:45.799Z,61.16
2019-03-13T21:50:52.255Z,60.95
2019-03-13T21:56:08.492Z,59.82
2019-03-13T22:01:19.289Z,61.93
2019-03-13T22:06:28.686Z,60.95
2019-03-13T22:11:26.810Z,62.18
2019-03-13T22:16:29.719Z,61.38
2019-03-13T22:21:31.053Z,62.79
2019-03-13T22:26:51.741Z,62.67
2019-03-13T22:31:53.044Z,62.87
2019-03-13T22:36:55.089Z,63.63
2019-03-13T22:41:56.674Z,63.51
2019-03-13T22:46:57.831Z,63.20
2019-03-13T22:51:59.879Z,63.20
2019-03-13T22:57:01.203Z,63.57
2019-03-13T23:33:42.486Z,62.63
2019-03-13T23:38:43.908Z,62.64
2019-03-13T23:43:45.941Z,62.62
2019-03-13T23:48:47.228Z,63.42
2019-03-13T23:53:48.505Z,63.03
2019-03-13T23:58:50.610Z,63.00
